createdAt,value
2022-10-11T00:01:59.126Z,89.56
2022-10-11T00:05:22.289Z,89.68
2022-10-11T00:08:44.956Z,89.53
2022-10-11T00:12:09.674Z,89.50
2022-10-11T00:15:33.473Z,89.61
2022-10-11T00:18:56.386Z,89.72
2022-10-11T00:22:19.480Z,89.88
2022-10-11T00:25:42.808Z,90.14
2022-10-11T01:12:36.764Z,89.73
2022-10-11T01:16:07.776Z,89.54
2022-10-11T01:19:50.023Z,89.54
2022-10-11T01:23:39.847Z,89.43
2022-10-11T01:27:36.705Z,89.35
2022-10-11T01:31:04.931Z,89.18
2022-10-11T01:34:32.651Z,89.25
2022-10-11T01:38:01.171Z,89.10
2022-10-11T01:41:26.768Z,89.23
2022-10-11T01:44:51.925Z,89.25
2022-10-11T01:48:15.656Z,88.96
2022-10-11T01:51:44.056Z,89.34
2022-10-11T01:55:23.573Z,89.35
2022-10-11T01:58:56.392Z,89.31
2022-10-11T02:02:32.185Z,88.87
2022-10-11T02:06:01.587Z,89.31
2022-10-11T02:09:30.845Z,89.15
2022-10-11T02:12:59.362Z,89.61
2022-10-11T02:16:26.825Z,89.77
2022-10-11T02:19:51.804Z,89.63
2022-10-11T02:23:18.272Z,89.44
2022-10-11T02:26:44.262Z,89.42
2022-10-11T02:30:09.385Z,89.37
2022-10-11T02:33:37.292Z,89.95
2022-10-11T02:37:03.382Z,89.57
2022-10-11T02:40:30.897Z,89.76
2022-10-11T02:43:59.570Z,89.23
2022-10-11T02:47:21.085Z,89.76
2022-10-11T02:50:44.524Z,89.66
2022-10-11T02:54:07.058Z,89.73
2022-10-11T02:57:30.472Z,89.68
2022-10-11T03:00:52.345Z,88.98
2022-10-11T03:04:14.552Z,88.94
2022-10-11T03:07:36.458Z,89.35
2022-10-11T03:10:58.499Z,88.96
2022-10-11T03:14:21.936Z,88.99
2022-10-11T03:17:44.055Z,88.53
2022-10-11T03:21:05.932Z,88.58
2022-10-11T03:24:27.751Z,88.65
2022-10-11T03:27:49.660Z,88.31
2022-10-11T03:31:13.006Z,88.81
2022-10-11T03:34:34.787Z,88.58
2022-10-11T03:37:56.503Z,88.64
2022-10-11T03:41:18.232Z,88.31
2022-10-11T03:44:41.729Z,88.46
2022-10-11T03:48:05.116Z,88.29
2022-10-11T03:51:26.779Z,88.27
2022-10-11T03:54:48.602Z,88.23
2022-10-11T03:58:10.681Z,88.31
2022-10-11T04:01:37.646Z,88.51
2022-10-11T04:05:01.958Z,88.18
2022-10-11T04:08:23.720Z,88.23
2022-10-11T04:11:45.639Z,88.23
2022-10-11T04:15:08.579Z,88.39
2022-10-11T04:18:31.079Z,88.52
2022-10-11T04:21:54.528Z,88.79
2022-10-11T04:25:16.867Z,88.41
2022-10-11T04:28:38.799Z,88.11
2022-10-11T04:32:00.812Z,88.69
2022-10-11T04:35:22.810Z,88.12
2022-10-11T04:38:46.106Z,87.94
2022-10-11T04:42:07.654Z,88.66
2022-10-11T04:45:29.482Z,88.65
2022-10-11T04:48:51.492Z,88.57
2022-10-11T04:52:13.396Z,88.59
2022-10-11T04:55:36.720Z,88.94
2022-10-11T04:58:58.544Z,88.85
2022-10-11T05:02:20.405Z,88.94
2022-10-11T05:05:42.192Z,89.26
2022-10-11T05:09:03.948Z,88.98
2022-10-11T05:12:27.170Z,89.18
2022-10-11T05:15:49.285Z,89.09
2022-10-11T05:19:11.176Z,88.77
2022-10-11T05:22:33.013Z,89.23
2022-10-11T05:25:55.083Z,88.75
2022-10-11T05:29:18.391Z,88.51
2022-10-11T05:32:40.098Z,89.02
2022-10-11T05:36:02.380Z,88.48
2022-10-11T05:39:24.524Z,88.61
2022-10-11T05:42:46.518Z,88.71
2022-10-11T05:46:10.664Z,88.46
2022-10-11T05:49:32.833Z,88.25
2022-10-11T05:52:54.627Z,87.80
2022-10-11T05:56:22.572Z,87.13
2022-10-11T05:59:44.589Z,86.86
2022-10-11T06:03:09.911Z,86.50
2022-10-11T06:06:32.041Z,86.07
2022-10-11T06:09:54.329Z,85.93
2022-10-11T06:13:16.232Z,85.67
2022-10-11T06:16:38.060Z,85.01
2022-10-11T06:20:01.373Z,84.37
2022-10-11T06:23:23.092Z,84.68
2022-10-11T06:26:44.905Z,84.30
2022-10-11T06:30:07.594Z,84.08
2022-10-11T06:33:29.494Z,84.79
2022-10-11T06:37:14.178Z,83.98
2022-10-11T06:40:35.876Z,83.96
2022-10-11T06:43:58.157Z,83.71
2022-10-11T06:47:20.215Z,83.07
2022-10-11T06:50:59.009Z,83.52
2022-10-11T06:54:23.507Z,83.45
2022-10-11T06:57:45.617Z,82.97
2022-10-11T07:01:09.689Z,83.37
2022-10-11T07:04:33.940Z,83.07
2022-10-11T07:07:55.641Z,82.46
2022-10-11T07:11:21.098Z,82.33
2022-10-11T07:14:43.147Z,82.63
2022-10-11T07:18:05.226Z,83.00
2022-10-11T07:21:27.039Z,83.14
2022-10-11T07:24:49.261Z,83.40
2022-10-11T07:28:12.817Z,83.99
2022-10-11T07:31:34.787Z,84.76
2022-10-11T07:34:56.870Z,85.20
2022-10-11T07:38:18.993Z,85.72
2022-10-11T07:41:46.387Z,86.28
2022-10-11T07:45:10.454Z,86.37
2022-10-11T07:48:33.147Z,86.95
2022-10-11T07:51:55.101Z,87.02
2022-10-11T07:55:17.274Z,87.06
2022-10-11T07:58:38.919Z,87.79
2022-10-11T08:02:02.297Z,87.62
2022-10-11T08:05:24.192Z,87.74
2022-10-11T08:08:46.019Z,87.76
2022-10-11T08:12:08.085Z,87.73
2022-10-11T08:15:31.096Z,87.42
2022-10-11T08:18:56.958Z,87.89
2022-10-11T08:22:19.219Z,87.90
2022-10-11T08:25:42.583Z,87.65
2022-10-11T08:29:05.343Z,88.39
2022-10-11T08:32:27.145Z,87.68
2022-10-11T08:35:52.029Z,87.95
2022-10-11T08:39:13.744Z,88.26
2022-10-11T08:42:40.087Z,88.53
2022-10-11T08:46:05.424Z,88.75
2022-10-11T08:49:31.789Z,89.24
2022-10-11T08:53:00.128Z,89.96
2022-10-11T08:56:25.128Z,90.17
2022-10-11T08:59:51.230Z,90.58
2022-10-11T09:03:24.871Z,91.38
2022-10-11T09:07:00.235Z,91.37
2022-10-11T09:10:55.716Z,90.94
2022-10-11T09:14:39.470Z,90.71
2022-10-11T09:18:27.984Z,90.50
2022-10-11T09:21:56.281Z,90.21
2022-10-11T09:25:26.651Z,90.47
2022-10-11T09:29:01.555Z,90.20
2022-10-11T09:32:24.832Z,89.93
2022-10-11T09:35:49.713Z,89.79
2022-10-11T09:39:25.020Z,90.27
2022-10-11T09:42:46.993Z,90.07
2022-10-11T09:46:22.219Z,90.10
2022-10-11T09:49:48.973Z,90.03
2022-10-11T09:53:11.171Z,89.56
2022-10-11T09:56:36.146Z,89.10
2022-10-11T10:00:03.745Z,89.03
2022-10-11T10:03:30.814Z,89.43
2022-10-11T10:07:13.089Z,89.68
2022-10-11T10:10:38.742Z,89.77
2022-10-11T10:14:00.732Z,90.03
2022-10-11T10:17:22.913Z,89.09
2022-10-11T10:20:53.497Z,90.20
2022-10-11T10:24:21.336Z,90.17
2022-10-11T10:27:58.548Z,90.30
2022-10-11T10:31:23.921Z,90.75
2022-10-11T10:34:58.016Z,90.49
2022-10-11T10:38:27.917Z,90.61
2022-10-11T10:41:49.930Z,90.25
2022-10-11T10:45:21.185Z,90.43
2022-10-11T10:52:43.812Z,91.17
2022-10-11T10:56:12.298Z,91.40
2022-10-11T11:00:12.635Z,90.97
2022-10-11T11:03:44.871Z,90.58
2022-10-11T11:07:20.804Z,90.60
2022-10-11T11:10:52.796Z,91.36
2022-10-11T11:14:29.128Z,90.25
2022-10-11T11:18:05.469Z,90.31
2022-10-11T11:21:41.382Z,89.31
2022-10-11T11:25:12.930Z,88.71
2022-10-11T11:28:51.363Z,88.19
2022-10-11T11:32:22.144Z,87.61
2022-10-11T11:35:48.101Z,88.66
2022-10-11T11:39:18.165Z,88.29
2022-10-11T11:42:45.143Z,88.09
2022-10-11T11:46:14.060Z,87.86
2022-10-11T11:49:39.341Z,88.22
2022-10-11T11:53:05.242Z,87.03
2022-10-11T11:56:32.384Z,86.66
2022-10-11T11:59:59.240Z,87.09
2022-10-11T12:03:25.721Z,86.56
2022-10-11T12:07:15.938Z,85.71
2022-10-11T12:10:41.274Z,85.67
2022-10-11T12:14:15.699Z,85.83
2022-10-11T12:18:03.628Z,85.90
2022-10-11T12:21:33.645Z,86.54
2022-10-11T12:24:59.291Z,85.93
2022-10-11T12:28:49.794Z,85.18
2022-10-11T12:32:48.323Z,85.07
2022-10-11T12:36:33.002Z,84.85
2022-10-11T12:39:57.409Z,84.93
2022-10-11T12:43:33.071Z,84.88
2022-10-11T12:47:21.504Z,84.59
2022-10-11T12:50:52.769Z,84.56
2022-10-11T12:54:37.864Z,84.41
2022-10-11T12:58:28.988Z,82.71
2022-10-11T13:01:53.995Z,82.22
2022-10-11T13:05:24.782Z,81.40
2022-10-11T13:08:51.185Z,80.44
2022-10-11T13:12:17.959Z,79.68
2022-10-11T13:15:44.806Z,77.29
2022-10-11T13:19:07.306Z,76.62
2022-10-11T13:22:29.706Z,77.14
2022-10-11T13:25:52.913Z,74.53
2022-10-11T13:29:18.464Z,73.36
2022-10-11T13:32:43.814Z,72.91
2022-10-11T13:36:10.071Z,73.56
2022-10-11T13:39:35.700Z,72.40
2022-10-11T13:42:58.670Z,71.20
2022-10-11T13:46:23.533Z,71.34
2022-10-11T13:49:53.498Z,72.05
2022-10-11T13:53:25.355Z,70.11
2022-10-11T13:56:51.482Z,70.78
2022-10-11T14:00:33.522Z,69.70
2022-10-11T14:03:59.821Z,69.92
2022-10-11T14:07:27.863Z,67.16
2022-10-11T14:10:55.688Z,68.58
2022-10-11T14:14:41.358Z,69.16
2022-10-11T14:18:24.439Z,68.53
2022-10-11T14:21:51.625Z,70.19
2022-10-11T14:25:15.176Z,70.41
2022-10-11T14:28:37.310Z,71.00
2022-10-11T14:32:04.366Z,70.53
2022-10-11T14:35:29.968Z,70.59
2022-10-11T14:38:52.634Z,71.44
2022-10-11T14:42:16.888Z,71.59
2022-10-11T14:45:38.894Z,72.14
2022-10-11T14:49:00.746Z,72.51
2022-10-11T14:52:22.688Z,72.27
2022-10-11T14:55:45.044Z,72.22
2022-10-11T14:59:09.485Z,72.56
2022-10-11T15:02:31.579Z,73.11
2022-10-11T15:05:53.411Z,73.07
2022-10-11T15:09:16.448Z,73.34
2022-10-11T15:12:38.568Z,73.44
2022-10-11T15:16:02.423Z,73.77
2022-10-11T15:19:26.743Z,74.32
2022-10-11T15:22:49.067Z,74.48
2022-10-11T15:26:14.566Z,74.83
2022-10-11T15:29:36.746Z,74.70
2022-10-11T15:33:00.196Z,75.24
2022-10-11T15:36:23.789Z,75.09
2022-10-11T15:39:45.909Z,74.96
2022-10-11T15:43:07.796Z,75.92
2022-10-11T15:46:29.618Z,76.11
2022-10-11T15:49:52.855Z,75.82
2022-10-11T15:53:17.115Z,76.56
2022-10-11T15:56:39.013Z,76.80
2022-10-11T16:00:00.695Z,77.23
2022-10-11T16:03:23.818Z,78.11
2022-10-11T16:06:47.920Z,78.02
2022-10-11T16:10:11.056Z,78.03
2022-10-11T16:13:33.934Z,78.31
2022-10-11T16:16:56.141Z,78.48
2022-10-11T16:20:22.405Z,79.00
2022-10-11T16:23:45.907Z,78.57
2022-10-11T16:27:08.334Z,79.11
2022-10-11T16:30:30.371Z,79.08
2022-10-11T16:33:53.077Z,79.37
2022-10-11T16:37:15.048Z,78.94
2022-10-11T16:40:38.652Z,79.05
2022-10-11T16:44:00.520Z,79.31
2022-10-11T16:47:22.442Z,79.38
2022-10-11T16:50:44.348Z,80.17
2022-10-11T16:54:06.656Z,79.88
2022-10-11T16:57:29.961Z,80.11
2022-10-11T17:00:51.820Z,79.59
2022-10-11T17:04:14.647Z,79.44
2022-10-11T17:07:36.492Z,80.24
2022-10-11T17:10:59.179Z,79.77
2022-10-11T17:14:23.016Z,80.17
2022-10-11T17:17:45.209Z,80.59
2022-10-11T17:21:09.600Z,80.72
2022-10-11T17:24:31.673Z,80.89
2022-10-11T17:27:56.272Z,81.62
2022-10-11T17:31:19.818Z,81.58
2022-10-11T17:34:41.820Z,82.19
2022-10-11T17:38:06.114Z,82.40
2022-10-11T17:41:32.006Z,82.75
2022-10-11T17:44:54.462Z,83.35
2022-10-11T17:48:18.039Z,83.40
2022-10-11T17:51:41.607Z,84.29
2022-10-11T17:55:03.795Z,84.84
2022-10-11T17:58:26.985Z,84.59
2022-10-11T18:01:49.522Z,85.16
2022-10-11T18:05:14.758Z,86.13
2022-10-11T18:08:40.551Z,86.60
2022-10-11T18:12:02.879Z,87.55
2022-10-11T18:15:24.782Z,87.53
2022-10-11T18:18:46.862Z,88.34
2022-10-11T18:22:10.223Z,89.06
2022-10-11T18:25:34.795Z,88.17
2022-10-11T18:28:57.306Z,88.34
2022-10-11T18:32:20.127Z,88.25
2022-10-11T18:35:42.725Z,88.03
2022-10-11T18:39:08.566Z,87.79
2022-10-11T18:42:30.481Z,88.42
2022-10-11T18:45:52.374Z,87.87
2022-10-11T18:49:14.720Z,88.07
2022-10-11T18:52:39.205Z,88.31
2022-10-11T18:56:09.888Z,88.47
2022-10-11T18:59:33.125Z,88.35
2022-10-11T19:02:55.383Z,88.25
2022-10-11T19:06:19.174Z,88.90
2022-10-11T19:09:41.278Z,89.07
2022-10-11T19:13:04.814Z,88.65
2022-10-11T19:16:29.605Z,89.24
2022-10-11T19:19:51.787Z,89.30
2022-10-11T19:23:14.189Z,89.80
2022-10-11T19:26:38.042Z,89.92
2022-10-11T19:30:01.552Z,89.48
2022-10-11T19:33:23.228Z,90.35
2022-10-11T19:36:45.336Z,90.40
2022-10-11T19:40:09.209Z,89.86
2022-10-11T19:43:31.750Z,90.86
2022-10-11T19:46:55.416Z,91.07
2022-10-11T19:50:17.641Z,91.04
2022-10-11T19:53:39.621Z,92.02
2022-10-11T19:57:01.895Z,92.53
2022-10-11T20:00:24.096Z,92.70
2022-10-11T20:03:49.433Z,92.14
2022-10-11T20:07:11.774Z,92.75
2022-10-11T20:10:34.883Z,92.41
2022-10-11T20:13:57.657Z,92.11
2022-10-11T20:17:19.444Z,92.61
2022-10-11T20:20:52.334Z,92.42
2022-10-11T20:24:14.525Z,92.53
2022-10-11T20:27:36.819Z,92.64
2022-10-11T20:30:58.849Z,92.23
2022-10-11T20:34:20.721Z,92.20
2022-10-11T20:37:43.988Z,92.53
2022-10-11T20:41:07.718Z,92.30
2022-10-11T20:44:29.796Z,91.79
2022-10-11T20:47:51.616Z,91.41
2022-10-11T20:51:13.431Z,91.75
2022-10-11T20:54:36.673Z,91.61
2022-10-11T20:57:58.391Z,92.46
2022-10-11T21:01:22.431Z,92.23
2022-10-11T21:04:44.283Z,92.28
2022-10-11T21:08:06.927Z,92.27
2022-10-11T21:11:32.180Z,92.84
2022-10-11T21:14:54.046Z,93.21
2022-10-11T21:18:16.032Z,93.28
2022-10-11T21:21:38.054Z,93.18
2022-10-11T21:25:00.051Z,93.54
2022-10-11T21:28:23.520Z,93.86
2022-10-11T21:31:45.512Z,93.75
2022-10-11T21:35:07.689Z,93.71
2022-10-11T21:38:30.058Z,93.62
2022-10-11T21:41:51.963Z,93.56
2022-10-11T21:45:15.314Z,93.31
2022-10-11T21:48:37.613Z,93.59
2022-10-11T21:51:59.479Z,93.58
2022-10-11T21:55:21.446Z,93.62
2022-10-11T21:58:43.382Z,94.05
2022-10-11T22:02:06.698Z,93.81
2022-10-11T22:05:28.720Z,93.25
2022-10-11T22:08:51.066Z,93.25
2022-10-11T22:12:12.808Z,93.23
2022-10-11T22:15:35.773Z,93.44
2022-10-11T22:19:00.148Z,93.48
2022-10-11T22:22:22.094Z,93.37
2022-10-11T22:25:43.993Z,93.33
2022-10-11T22:29:05.725Z,93.61
2022-10-11T22:32:27.520Z,93.94
2022-10-11T22:35:54.963Z,93.12
2022-10-11T22:39:16.849Z,93.30
2022-10-11T22:42:38.749Z,92.83
2022-10-11T22:46:00.694Z,92.99
2022-10-11T22:49:22.608Z,93.29
2022-10-11T22:52:45.969Z,93.61
2022-10-11T22:56:08.935Z,93.56
2022-10-11T22:59:30.545Z,93.12
2022-10-11T23:02:52.520Z,93.33
2022-10-11T23:06:14.539Z,92.94
2022-10-11T23:09:37.968Z,93.07
2022-10-11T23:13:00.001Z,92.83
2022-10-11T23:16:21.919Z,92.85
2022-10-11T23:19:43.798Z,93.12
2022-10-11T23:23:05.814Z,91.64
2022-10-11T23:26:29.155Z,91.78
2022-10-11T23:29:51.219Z,91.84
2022-10-11T23:33:12.866Z,91.50
2022-10-11T23:36:34.649Z,91.81
2022-10-11T23:39:56.451Z,90.93
2022-10-11T23:43:19.911Z,91.73
2022-10-11T23:46:41.886Z,91.46
2022-10-11T23:50:03.756Z,91.23
2022-10-11T23:53:25.714Z,91.67
2022-10-11T23:56:47.659Z,91.69
